createdAt,value
2019-03-18T00:00:32.282Z,41.48
2019-03-18T00:01:41.175Z,41.71
2019-03-18T00:02:49.562Z,42.78
2019-03-18T00:03:57.982Z,43.01
2019-03-18T00:05:06.793Z,42.40
2019-03-18T00:06:16.270Z,42.59
2019-03-18T00:07:24.430Z,42.64
2019-03-18T00:08:32.629Z,42.50
2019-03-18T00:09:41.265Z,42.40
2019-03-18T00:10:49.710Z,42.63
2019-03-18T00:11:58.142Z,42.72
2019-03-18T00:13:06.496Z,42.70
2019-03-18T00:14:14.729Z,42.78
2019-03-18T00:15:23.433Z,42.81
2019-03-18T00:16:31.655Z,42.64
2019-03-18T00:17:40.032Z,42.22
2019-03-18T00:18:48.557Z,42.52
2019-03-18T00:19:56.613Z,42.47
2019-03-18T00:21:06.211Z,42.56
2019-03-18T00:22:14.371Z,42.54
2019-03-18T00:23:22.845Z,42.53
2019-03-18T00:24:31.139Z,42.29
2019-03-18T00:25:39.331Z,42.92
2019-03-18T00:26:48.292Z,42.90
2019-03-18T00:27:56.312Z,42.88
2019-03-18T00:29:04.521Z,43.05
2019-03-18T00:30:20.102Z,42.90
2019-03-18T00:31:28.614Z,42.88
2019-03-18T00:32:36.937Z,42.99
2019-03-18T00:33:45.124Z,43.05
2019-03-18T00:34:53.361Z,42.86
2019-03-18T00:36:01.759Z,42.93
2019-03-18T00:37:09.901Z,42.82
2019-03-18T00:38:18.202Z,43.14
2019-03-18T00:39:26.660Z,43.00
2019-03-18T00:40:34.921Z,42.83
2019-03-18T00:41:43.241Z,43.02
2019-03-18T00:42:51.496Z,42.82
2019-03-18T00:43:59.683Z,43.03
2019-03-18T00:45:14.587Z,43.13
2019-03-18T00:46:19.067Z,43.32
2019-03-18T00:47:26.987Z,43.56
2019-03-18T00:48:35.139Z,43.42
2019-03-18T00:49:43.286Z,43.48
2019-03-18T00:50:51.196Z,43.37
2019-03-18T00:51:59.445Z,43.17
2019-03-18T00:53:07.441Z,43.16
2019-03-18T00:54:15.482Z,43.03
2019-03-18T00:55:23.788Z,43.02
2019-03-18T00:56:31.789Z,43.02
2019-03-18T00:57:39.939Z,42.94
2019-03-18T00:58:47.912Z,43.00
2019-03-18T00:59:55.824Z,43.74
2019-03-18T01:01:03.968Z,44.19
2019-03-18T01:02:12.103Z,44.13
2019-03-18T01:03:20.049Z,44.47
2019-03-18T01:04:28.167Z,44.73
2019-03-18T01:05:36.601Z,45.02
2019-03-18T01:06:44.523Z,44.94
2019-03-18T01:07:52.687Z,45.05
2019-03-18T01:09:01.194Z,45.14
2019-03-18T01:10:15.568Z,45.29
2019-03-18T01:11:23.913Z,45.52
2019-03-18T01:12:32.181Z,45.68
2019-03-18T01:13:40.634Z,46.15
2019-03-18T01:14:48.898Z,45.66
2019-03-18T01:15:56.860Z,46.30
2019-03-18T01:17:04.810Z,47.25
2019-03-18T01:18:13.136Z,47.83
2019-03-18T01:19:21.079Z,48.23
2019-03-18T01:20:29.335Z,48.75
2019-03-18T01:21:37.367Z,49.04
2019-03-18T01:22:45.906Z,48.87
2019-03-18T01:23:53.981Z,48.65
2019-03-18T01:25:02.430Z,48.12
2019-03-18T01:26:10.346Z,47.95
2019-03-18T01:27:18.219Z,47.67
2019-03-18T01:28:26.477Z,47.93
2019-03-18T01:29:34.406Z,48.15
2019-03-18T01:30:42.510Z,47.86
2019-03-18T01:31:50.656Z,48.28
2019-03-18T01:32:58.987Z,48.20
2019-03-18T01:34:07.162Z,47.99
2019-03-18T01:35:15.304Z,48.18
2019-03-18T01:36:23.556Z,47.92
2019-03-18T01:37:31.997Z,48.03
2019-03-18T01:38:40.039Z,48.03
2019-03-18T01:39:48.203Z,47.60
2019-03-18T01:40:56.349Z,47.67
2019-03-18T01:42:04.602Z,47.90
2019-03-18T01:43:12.888Z,48.16
2019-03-18T01:44:20.822Z,47.95
2019-03-18T01:45:40.151Z,48.16
2019-03-18T01:46:38.925Z,48.23
2019-03-18T01:47:47.006Z,48.46
2019-03-18T01:48:54.942Z,48.30
2019-03-18T01:50:02.968Z,48.75
2019-03-18T01:51:11.120Z,48.89
2019-03-18T01:52:19.405Z,49.01
2019-03-18T01:53:27.485Z,49.83
2019-03-18T01:54:35.413Z,50.50
2019-03-18T01:55:43.483Z,51.21
2019-03-18T01:56:51.392Z,50.89
2019-03-18T01:57:59.451Z,50.94
2019-03-18T01:59:07.516Z,51.13
2019-03-18T02:00:18.575Z,51.57
2019-03-18T02:01:26.565Z,51.16
2019-03-18T02:02:34.641Z,51.54
2019-03-18T02:03:42.582Z,51.70
2019-03-18T02:04:50.832Z,51.43
2019-03-18T02:05:58.913Z,52.00
2019-03-18T02:07:06.898Z,51.90
2019-03-18T02:08:15.209Z,51.94
2019-03-18T02:09:23.459Z,52.49
2019-03-18T02:10:31.459Z,52.53
2019-03-18T02:11:39.498Z,52.50
2019-03-18T02:12:47.641Z,52.67
2019-03-18T02:13:55.768Z,52.71
2019-03-18T02:15:03.893Z,53.26
2019-03-18T02:16:12.193Z,53.06
2019-03-18T02:17:20.134Z,53.25
2019-03-18T02:18:28.472Z,52.92
2019-03-18T02:19:36.492Z,52.79
2019-03-18T02:20:44.586Z,52.88
2019-03-18T02:21:52.570Z,52.67
2019-03-18T02:23:00.805Z,53.41
2019-03-18T02:24:09.298Z,53.37
2019-03-18T02:25:17.478Z,53.35
2019-03-18T02:26:25.753Z,53.37
2019-03-18T02:27:33.829Z,53.46
2019-03-18T02:28:41.947Z,53.82
2019-03-18T02:29:49.737Z,54.68
2019-03-18T02:30:57.661Z,54.22
2019-03-18T02:32:05.972Z,54.62
2019-03-18T02:33:13.930Z,54.49
2019-03-18T02:34:22.178Z,54.34
2019-03-18T02:35:30.449Z,55.33
2019-03-18T02:36:38.593Z,55.31
2019-03-18T02:37:46.514Z,55.22
2019-03-18T02:38:54.503Z,54.96
2019-03-18T02:40:02.655Z,55.56
2019-03-18T02:41:10.734Z,56.23
2019-03-18T02:42:18.957Z,56.51
2019-03-18T02:43:27.380Z,56.08
2019-03-18T02:44:35.453Z,56.79
2019-03-18T02:45:43.281Z,57.37
2019-03-18T02:46:51.568Z,57.53
2019-03-18T02:47:59.777Z,57.58
2019-03-18T02:49:07.965Z,58.14
2019-03-18T02:50:16.384Z,58.49
2019-03-18T02:51:24.780Z,58.68
2019-03-18T02:52:32.872Z,58.54
2019-03-18T02:53:40.953Z,58.69
2019-03-18T02:54:49.150Z,58.33
2019-03-18T02:55:57.192Z,58.28
2019-03-18T02:57:05.116Z,58.23
2019-03-18T02:58:13.346Z,57.77
2019-03-18T02:59:21.733Z,57.63
2019-03-18T03:00:29.806Z,57.29
2019-03-18T03:01:37.718Z,57.41
2019-03-18T03:02:45.930Z,57.33
2019-03-18T03:03:53.724Z,57.22
2019-03-18T03:05:01.708Z,57.01
2019-03-18T03:06:09.827Z,56.77
2019-03-18T03:07:17.872Z,56.53
2019-03-18T03:08:26.154Z,56.40
2019-03-18T03:09:34.221Z,56.25
2019-03-18T03:10:42.304Z,56.11
2019-03-18T03:11:50.518Z,56.19
2019-03-18T03:12:58.694Z,55.99
2019-03-18T03:14:06.740Z,56.46
2019-03-18T03:15:15.723Z,56.70
2019-03-18T03:16:27.164Z,56.50
2019-03-18T03:17:33.248Z,56.30
2019-03-18T03:18:41.158Z,56.30
2019-03-18T03:19:49.370Z,56.13
2019-03-18T03:20:57.449Z,56.43
2019-03-18T03:22:05.373Z,56.43
2019-03-18T03:23:13.362Z,56.51
2019-03-18T03:24:21.859Z,56.74
2019-03-18T03:25:30.020Z,56.99
2019-03-18T03:26:38.044Z,57.08
2019-03-18T03:27:46.229Z,57.25
2019-03-18T03:28:54.815Z,57.33
2019-03-18T03:30:02.667Z,57.45
2019-03-18T03:31:10.696Z,58.21
2019-03-18T03:32:18.718Z,58.38
2019-03-18T03:33:26.819Z,58.22
2019-03-18T03:34:34.960Z,58.45
2019-03-18T03:35:42.882Z,58.64
2019-03-18T03:36:51.397Z,58.84
2019-03-18T03:38:00.015Z,58.93
2019-03-18T03:39:08.657Z,59.39
2019-03-18T03:40:16.754Z,59.30
2019-03-18T03:41:24.553Z,59.12
2019-03-18T03:42:33.197Z,59.01
2019-03-18T03:43:42.011Z,59.17
2019-03-18T03:44:50.369Z,59.28
2019-03-18T03:45:58.487Z,59.27
2019-03-18T03:47:06.533Z,59.40
2019-03-18T03:48:14.659Z,59.27
2019-03-18T03:49:22.701Z,59.55
2019-03-18T03:50:30.609Z,59.60
2019-03-18T03:51:38.914Z,60.23
2019-03-18T03:52:47.162Z,60.52
2019-03-18T03:53:55.457Z,60.65
2019-03-18T03:55:03.948Z,60.47
2019-03-18T03:56:12.069Z,61.11
2019-03-18T03:57:20.257Z,61.64
2019-03-18T03:58:28.160Z,61.42
2019-03-18T03:59:37.157Z,61.68
2019-03-18T04:00:45.433Z,61.88
2019-03-18T04:01:53.734Z,61.68
2019-03-18T04:03:01.723Z,61.91
2019-03-18T04:04:09.945Z,61.58
2019-03-18T04:05:18.126Z,61.83
2019-03-18T04:06:26.431Z,62.42
2019-03-18T04:07:34.529Z,62.72
2019-03-18T04:08:43.673Z,62.25
2019-03-18T04:09:52.034Z,61.88
2019-03-18T04:11:00.365Z,61.82
2019-03-18T04:12:08.311Z,62.20
2019-03-18T04:13:16.413Z,62.20
2019-03-18T04:14:24.619Z,62.25
2019-03-18T04:15:32.732Z,62.39
2019-03-18T04:16:43.981Z,62.89
2019-03-18T04:17:50.775Z,63.54
2019-03-18T04:18:58.933Z,63.79
2019-03-18T04:20:11.492Z,64.00
2019-03-18T04:21:19.813Z,63.91
2019-03-18T04:22:28.092Z,64.09
2019-03-18T04:23:36.715Z,63.96
2019-03-18T04:24:44.801Z,64.06
2019-03-18T04:25:53.000Z,64.10
2019-03-18T04:27:01.201Z,63.80
2019-03-18T04:28:09.299Z,63.95
2019-03-18T04:29:17.720Z,63.94
2019-03-18T04:30:26.009Z,63.57
2019-03-18T04:31:33.994Z,63.51
2019-03-18T04:32:42.194Z,63.48
2019-03-18T04:33:50.391Z,63.65
2019-03-18T04:34:58.466Z,64.10
2019-03-18T04:36:06.382Z,64.62
2019-03-18T04:37:14.479Z,64.57
2019-03-18T04:38:22.886Z,64.80
2019-03-18T04:39:30.930Z,65.28
2019-03-18T04:40:39.614Z,65.11
2019-03-18T04:41:47.581Z,64.93
2019-03-18T04:42:55.810Z,64.85
2019-03-18T04:44:03.969Z,64.79
2019-03-18T04:45:12.476Z,64.84
2019-03-18T04:46:20.731Z,65.03
2019-03-18T04:47:28.757Z,65.15
2019-03-18T04:48:36.930Z,65.15
2019-03-18T04:49:45.270Z,64.96
2019-03-18T04:50:53.381Z,65.23
2019-03-18T04:52:01.474Z,65.41
2019-03-18T04:53:09.498Z,65.46
2019-03-18T04:54:17.710Z,65.53
2019-03-18T04:55:25.818Z,65.47
2019-03-18T04:56:33.756Z,65.61
2019-03-18T04:57:41.984Z,65.83
2019-03-18T04:58:50.079Z,65.91
2019-03-18T04:59:58.203Z,65.53
2019-03-18T05:01:06.272Z,65.45
2019-03-18T05:02:16.628Z,65.46
2019-03-18T05:03:24.490Z,65.13
2019-03-18T05:04:32.552Z,65.28
2019-03-18T05:05:41.113Z,65.42
2019-03-18T05:06:49.194Z,65.29
2019-03-18T05:07:57.276Z,65.30
2019-03-18T05:09:06.763Z,65.44
2019-03-18T05:10:14.773Z,65.30
2019-03-18T05:11:22.966Z,65.32
2019-03-18T05:12:32.863Z,65.66
2019-03-18T05:13:41.791Z,66.21
2019-03-18T05:14:50.059Z,66.21
2019-03-18T05:15:58.039Z,66.11
2019-03-18T05:17:06.242Z,66.22
2019-03-18T05:18:14.217Z,66.35
2019-03-18T05:19:22.263Z,66.48
2019-03-18T05:20:30.494Z,66.44
2019-03-18T05:21:38.702Z,66.17
2019-03-18T05:22:47.060Z,66.09
2019-03-18T05:23:55.068Z,65.72
2019-03-18T05:25:03.052Z,66.45
2019-03-18T05:26:11.103Z,66.33
2019-03-18T05:27:19.186Z,66.26
2019-03-18T05:28:27.074Z,66.25
2019-03-18T05:29:35.090Z,66.39
2019-03-18T05:30:43.745Z,66.36
2019-03-18T05:31:51.918Z,66.33
2019-03-18T05:33:00.076Z,66.12
2019-03-18T05:34:08.141Z,66.04
2019-03-18T05:35:16.533Z,66.44
2019-03-18T05:36:24.605Z,66.48
2019-03-18T05:37:32.528Z,66.67
2019-03-18T05:38:40.799Z,66.65
2019-03-18T05:39:49.032Z,67.01
2019-03-18T05:40:56.939Z,66.90
2019-03-18T05:42:04.968Z,66.68
2019-03-18T05:43:13.427Z,66.94
2019-03-18T05:44:21.710Z,66.46
2019-03-18T05:45:29.951Z,66.71
2019-03-18T05:46:37.932Z,66.73
2019-03-18T05:47:46.167Z,66.69
2019-03-18T05:48:54.154Z,66.73
2019-03-18T05:50:02.195Z,66.82
2019-03-18T05:51:10.408Z,66.66
2019-03-18T05:52:18.243Z,66.24
2019-03-18T05:53:26.304Z,66.38
2019-03-18T05:54:34.141Z,66.37
2019-03-18T05:55:42.399Z,66.08
2019-03-18T05:56:50.405Z,66.20
2019-03-18T05:57:58.469Z,66.26
2019-03-18T05:59:06.732Z,66.57
2019-03-18T06:00:16.039Z,66.79
2019-03-18T06:01:24.415Z,66.66
2019-03-18T06:02:32.923Z,66.53
2019-03-18T06:03:41.296Z,66.56
2019-03-18T06:04:49.541Z,66.55
2019-03-18T06:05:57.794Z,66.75
2019-03-18T06:07:06.258Z,66.84
2019-03-18T06:08:14.780Z,66.62
2019-03-18T06:09:22.849Z,66.60
2019-03-18T06:10:31.514Z,66.35
2019-03-18T06:11:39.358Z,66.69
2019-03-18T06:12:47.563Z,66.75
2019-03-18T06:13:56.655Z,66.45
2019-03-18T06:15:07.143Z,66.65
2019-03-18T06:16:15.568Z,66.75
2019-03-18T06:17:23.902Z,66.62
2019-03-18T06:18:31.987Z,66.79
2019-03-18T06:19:40.448Z,66.21
2019-03-18T06:20:48.509Z,66.36
2019-03-18T06:21:57.014Z,65.51
2019-03-18T06:23:05.480Z,65.53
2019-03-18T06:24:13.869Z,65.07
2019-03-18T06:25:21.775Z,64.92
2019-03-18T06:26:30.629Z,65.19
2019-03-18T06:27:39.423Z,64.88
2019-03-18T06:28:47.786Z,64.95
2019-03-18T06:29:56.044Z,65.24
2019-03-18T06:31:04.518Z,65.37
2019-03-18T06:32:12.849Z,65.26
2019-03-18T06:33:21.151Z,65.33
2019-03-18T06:34:29.597Z,64.93
2019-03-18T06:35:37.889Z,64.94
2019-03-18T06:36:46.326Z,65.04
2019-03-18T06:37:54.489Z,64.97
2019-03-18T06:39:02.994Z,65.56
2019-03-18T06:40:16.224Z,65.81
2019-03-18T06:41:24.546Z,65.77
2019-03-18T06:42:32.651Z,65.52
2019-03-18T06:43:41.094Z,65.72
2019-03-18T06:44:49.394Z,65.68
2019-03-18T06:45:57.893Z,65.41
2019-03-18T06:47:06.345Z,65.42
2019-03-18T06:48:15.221Z,65.28
2019-03-18T06:49:23.252Z,65.03
2019-03-18T06:50:31.776Z,64.98
2019-03-18T06:51:40.401Z,65.04
2019-03-18T06:52:48.840Z,64.90
2019-03-18T06:53:57.061Z,64.24
2019-03-18T06:55:06.792Z,63.96
2019-03-18T06:56:15.193Z,63.74
2019-03-18T06:57:23.378Z,63.77
2019-03-18T06:58:31.776Z,63.38
2019-03-18T06:59:40.031Z,63.28
2019-03-18T07:00:48.276Z,63.07
2019-03-18T07:01:56.605Z,62.80
2019-03-18T07:03:05.552Z,62.94
2019-03-18T07:04:14.178Z,63.06
2019-03-18T07:05:22.553Z,62.91
2019-03-18T07:06:31.283Z,63.18
2019-03-18T07:07:39.486Z,63.02
2019-03-18T07:08:49.585Z,63.20
2019-03-18T07:09:57.846Z,62.93
2019-03-18T07:11:06.437Z,63.17
2019-03-18T07:12:14.692Z,63.00
2019-03-18T07:13:23.053Z,63.29
2019-03-18T07:14:31.810Z,63.21
2019-03-18T07:15:40.111Z,63.21
2019-03-18T07:16:48.727Z,63.19
2019-03-18T07:17:57.475Z,63.24
2019-03-18T07:19:05.807Z,63.22
2019-03-18T07:20:15.567Z,63.00
2019-03-18T07:21:23.885Z,63.00
2019-03-18T07:22:32.227Z,62.74
2019-03-18T07:23:40.333Z,62.85
2019-03-18T07:24:48.480Z,62.41
2019-03-18T07:25:56.932Z,62.02
2019-03-18T07:27:05.657Z,62.11
2019-03-18T07:28:14.061Z,62.12
2019-03-18T07:29:25.115Z,62.49
2019-03-18T07:30:33.410Z,62.51
2019-03-18T07:31:41.462Z,62.59
2019-03-18T07:32:50.075Z,62.69
2019-03-18T07:33:59.872Z,62.47
2019-03-18T07:35:08.578Z,62.41
2019-03-18T07:36:16.667Z,62.38
2019-03-18T07:37:24.761Z,62.45
2019-03-18T07:38:33.250Z,62.25
2019-03-18T07:39:41.403Z,62.15
2019-03-18T07:40:49.749Z,62.26
2019-03-18T07:41:58.096Z,62.14
2019-03-18T07:43:06.476Z,62.53
2019-03-18T07:44:15.358Z,62.42
2019-03-18T07:45:23.881Z,62.68
2019-03-18T07:46:32.542Z,62.37
2019-03-18T07:47:41.232Z,62.17
2019-03-18T07:48:49.603Z,61.72
2019-03-18T07:49:57.968Z,61.85
2019-03-18T07:51:06.551Z,61.87
2019-03-18T07:52:14.883Z,61.62
2019-03-18T07:53:23.371Z,61.79
2019-03-18T07:54:33.187Z,61.38
2019-03-18T07:55:41.481Z,61.81
2019-03-18T07:56:49.907Z,61.69
2019-03-18T07:57:58.272Z,61.49
2019-03-18T07:59:06.490Z,61.93
2019-03-18T08:00:16.248Z,62.03
2019-03-18T08:01:24.290Z,62.02
2019-03-18T08:02:32.666Z,61.78
2019-03-18T08:03:40.624Z,61.87
2019-03-18T08:04:48.862Z,62.17
2019-03-18T08:05:56.651Z,61.75
2019-03-18T08:07:05.082Z,61.27
2019-03-18T08:08:13.314Z,61.48
2019-03-18T08:09:21.550Z,61.62
2019-03-18T08:10:29.883Z,61.55
2019-03-18T08:11:38.716Z,61.30
2019-03-18T08:12:47.380Z,60.91
2019-03-18T08:13:56.197Z,60.89
2019-03-18T08:15:06.659Z,61.05
2019-03-18T08:16:15.061Z,60.69
2019-03-18T08:17:23.649Z,60.79
2019-03-18T08:18:42.770Z,60.54
2019-03-18T08:19:42.157Z,60.63
2019-03-18T08:20:50.506Z,60.26
2019-03-18T08:21:59.115Z,60.48
2019-03-18T08:23:07.140Z,60.58
2019-03-18T08:24:15.458Z,60.45
2019-03-18T08:25:23.615Z,60.31
2019-03-18T08:26:31.806Z,60.14
2019-03-18T08:27:40.412Z,59.94
2019-03-18T08:28:49.291Z,60.26
2019-03-18T08:29:58.052Z,59.66
2019-03-18T08:31:05.944Z,59.79
2019-03-18T08:32:14.139Z,59.93
2019-03-18T08:33:22.418Z,59.97
2019-03-18T08:34:30.733Z,60.19
2019-03-18T08:35:39.242Z,59.85
2019-03-18T08:36:47.348Z,59.30
2019-03-18T08:37:56.400Z,59.43
2019-03-18T08:39:06.092Z,59.35
2019-03-18T08:40:14.296Z,59.39
2019-03-18T08:41:22.484Z,59.46
2019-03-18T08:42:30.792Z,59.25
2019-03-18T08:43:38.900Z,59.14
2019-03-18T08:44:46.905Z,59.08
2019-03-18T08:45:55.494Z,58.90
2019-03-18T08:47:03.804Z,58.67
2019-03-18T08:48:11.897Z,58.96
2019-03-18T08:49:19.918Z,59.11
2019-03-18T08:50:28.032Z,58.97
2019-03-18T08:51:36.289Z,58.92
2019-03-18T08:52:44.284Z,58.75
2019-03-18T08:53:53.409Z,58.74
2019-03-18T08:55:01.527Z,58.93
2019-03-18T08:56:09.430Z,58.63
2019-03-18T08:57:17.895Z,58.60
2019-03-18T08:58:25.940Z,58.66
2019-03-18T08:59:34.199Z,58.29
2019-03-18T09:00:42.297Z,58.60
2019-03-18T09:01:50.545Z,58.87
2019-03-18T09:02:58.667Z,58.96
2019-03-18T09:04:06.995Z,58.92
2019-03-18T09:05:15.491Z,58.97
2019-03-18T09:06:23.529Z,58.84
2019-03-18T09:07:31.684Z,58.92
2019-03-18T09:08:39.884Z,58.94
2019-03-18T09:09:47.971Z,58.87
2019-03-18T09:10:56.897Z,59.20
2019-03-18T09:12:05.315Z,59.14
2019-03-18T09:13:13.314Z,59.03
2019-03-18T09:14:21.386Z,58.60
2019-03-18T09:15:29.417Z,58.35
2019-03-18T09:16:37.713Z,58.36
2019-03-18T09:17:45.752Z,58.61
2019-03-18T09:18:54.115Z,58.69
2019-03-18T09:20:02.206Z,58.26
2019-03-18T09:21:10.204Z,58.20
2019-03-18T09:22:18.293Z,58.08
2019-03-18T09:23:27.633Z,58.21
2019-03-18T09:24:35.888Z,58.42
2019-03-18T09:25:44.184Z,58.02
2019-03-18T09:27:01.894Z,58.08
2019-03-18T09:28:01.979Z,58.25
2019-03-18T09:29:10.310Z,58.51
2019-03-18T09:30:20.007Z,58.13
2019-03-18T09:31:28.383Z,58.49
2019-03-18T09:32:36.556Z,58.41
2019-03-18T09:33:44.450Z,58.34
2019-03-18T09:34:54.672Z,58.18
2019-03-18T09:36:02.435Z,58.17
2019-03-18T09:37:10.637Z,58.20
2019-03-18T09:38:18.817Z,57.14
2019-03-18T09:39:26.972Z,56.12
2019-03-18T09:40:35.258Z,55.78
2019-03-18T09:41:43.529Z,55.53
2019-03-18T09:42:51.741Z,55.91
2019-03-18T09:44:00.207Z,55.82
2019-03-18T09:45:12.622Z,56.08
2019-03-18T09:46:20.708Z,56.22
2019-03-18T09:47:28.858Z,56.21
2019-03-18T09:48:36.841Z,55.67
2019-03-18T09:49:45.227Z,56.06
2019-03-18T09:50:53.393Z,56.11
2019-03-18T09:52:01.224Z,55.89
2019-03-18T09:53:11.059Z,56.10
2019-03-18T09:54:19.509Z,55.95
2019-03-18T09:55:27.497Z,55.52
2019-03-18T09:56:35.847Z,55.31
2019-03-18T09:57:43.953Z,55.34
2019-03-18T09:58:52.178Z,55.25
2019-03-18T10:00:00.491Z,55.15
2019-03-18T10:01:08.359Z,55.31
2019-03-18T10:02:16.718Z,55.17
2019-03-18T10:03:24.914Z,55.08
2019-03-18T10:04:32.832Z,54.96
2019-03-18T10:05:43.860Z,54.95
2019-03-18T10:06:50.935Z,54.84
2019-03-18T10:07:59.165Z,54.99
2019-03-18T10:09:08.901Z,54.97
2019-03-18T10:10:17.079Z,54.46
2019-03-18T10:11:25.058Z,54.67
2019-03-18T10:12:33.008Z,54.83
2019-03-18T10:13:40.935Z,54.47
2019-03-18T10:14:48.984Z,54.50
2019-03-18T10:15:57.229Z,54.49
2019-03-18T10:17:09.999Z,54.44
2019-03-18T10:18:15.013Z,54.56
2019-03-18T10:19:33.027Z,54.67
2019-03-18T10:20:32.650Z,54.93
2019-03-18T10:21:40.683Z,54.96
2019-03-18T10:22:48.920Z,55.02
2019-03-18T10:23:57.038Z,54.94
2019-03-18T10:25:07.043Z,55.07
2019-03-18T10:26:15.225Z,55.42
2019-03-18T10:27:23.321Z,55.77
2019-03-18T10:28:31.224Z,56.01
2019-03-18T10:29:39.161Z,55.71
2019-03-18T10:30:47.437Z,55.58
2019-03-18T10:31:55.310Z,55.49
2019-03-18T10:33:03.618Z,54.96
2019-03-18T10:34:11.745Z,55.06
2019-03-18T10:35:20.828Z,55.06
2019-03-18T10:36:29.448Z,55.25
2019-03-18T10:37:37.570Z,55.18
2019-03-18T10:38:45.720Z,55.57
2019-03-18T10:39:53.953Z,54.90
2019-03-18T10:41:01.949Z,54.64
2019-03-18T10:42:09.947Z,54.60
2019-03-18T10:43:17.994Z,54.22
2019-03-18T10:44:27.234Z,54.04
2019-03-18T10:45:35.565Z,54.17
2019-03-18T10:46:43.557Z,53.73
2019-03-18T10:47:51.665Z,53.60
2019-03-18T10:49:00.228Z,53.45
2019-03-18T10:50:13.043Z,53.58
2019-03-18T10:51:21.316Z,53.70
2019-03-18T10:52:29.285Z,53.80
2019-03-18T10:53:37.389Z,53.74
2019-03-18T10:54:45.671Z,53.65
2019-03-18T10:55:54.054Z,54.06
2019-03-18T10:57:02.183Z,54.17
2019-03-18T10:58:10.465Z,54.13
2019-03-18T10:59:18.661Z,54.03
2019-03-18T11:00:26.997Z,53.98
2019-03-18T11:01:35.285Z,53.95
2019-03-18T11:02:44.945Z,53.91
2019-03-18T11:03:52.996Z,53.73
2019-03-18T11:05:01.099Z,53.84
2019-03-18T11:06:09.595Z,53.98
2019-03-18T11:07:17.763Z,54.17
2019-03-18T11:08:25.891Z,54.16
2019-03-18T11:09:33.998Z,54.00
2019-03-18T11:10:41.844Z,54.16
2019-03-18T11:11:49.938Z,54.00
2019-03-18T11:12:57.874Z,53.94
2019-03-18T11:14:06.012Z,54.00
2019-03-18T11:15:17.830Z,53.66
2019-03-18T11:16:26.060Z,53.72
2019-03-18T11:17:34.119Z,53.83
2019-03-18T11:18:42.464Z,53.45
2019-03-18T11:19:58.283Z,53.73
2019-03-18T11:21:00.695Z,53.82
2019-03-18T11:22:08.804Z,53.93
2019-03-18T11:23:16.744Z,53.90
2019-03-18T11:24:24.667Z,53.79
2019-03-18T11:25:32.952Z,53.94
2019-03-18T11:26:40.836Z,53.76
2019-03-18T11:27:48.986Z,53.61
2019-03-18T11:28:56.962Z,53.44
2019-03-18T11:30:07.248Z,53.50
2019-03-18T11:31:15.354Z,53.33
2019-03-18T11:32:23.435Z,53.08
2019-03-18T11:33:31.446Z,53.48
2019-03-18T11:34:39.453Z,53.42
2019-03-18T11:35:47.790Z,53.16
2019-03-18T11:36:55.810Z,53.22
2019-03-18T11:38:03.985Z,53.33
2019-03-18T11:39:12.306Z,53.57
2019-03-18T11:40:23.444Z,54.00
2019-03-18T11:41:31.413Z,53.56
2019-03-18T11:42:39.658Z,54.25
2019-03-18T11:43:48.053Z,54.55
2019-03-18T11:44:56.246Z,53.95
2019-03-18T11:46:04.292Z,53.95
2019-03-18T11:47:12.376Z,54.02
2019-03-18T11:48:20.431Z,53.90
2019-03-18T11:49:39.050Z,53.78
2019-03-18T11:50:41.271Z,53.72
2019-03-18T11:51:48.111Z,53.98
2019-03-18T11:52:56.145Z,54.29
2019-03-18T11:54:04.541Z,54.48
2019-03-18T11:55:21.969Z,54.51
2019-03-18T11:56:30.174Z,54.62
2019-03-18T11:57:38.439Z,54.58
2019-03-18T11:58:46.464Z,54.42
2019-03-18T11:59:54.461Z,54.22
2019-03-18T12:01:02.733Z,54.44
2019-03-18T12:02:10.929Z,54.47
2019-03-18T12:03:18.851Z,54.54
2019-03-18T12:04:26.734Z,54.48
2019-03-18T12:05:34.724Z,54.65
2019-03-18T12:06:43.111Z,54.52
2019-03-18T12:07:51.132Z,54.60
2019-03-18T12:08:59.307Z,54.85
2019-03-18T12:10:14.621Z,54.91
2019-03-18T12:11:22.562Z,54.77
2019-03-18T12:12:30.652Z,54.46
2019-03-18T12:13:39.093Z,54.60
2019-03-18T12:14:47.101Z,54.66
2019-03-18T12:15:55.018Z,54.53
2019-03-18T12:17:03.031Z,54.35
2019-03-18T12:18:11.127Z,54.45
2019-03-18T12:19:19.327Z,54.64
2019-03-18T12:20:27.570Z,54.87
2019-03-18T12:21:35.564Z,54.44
2019-03-18T12:22:44.135Z,54.56
2019-03-18T12:23:52.533Z,54.40
2019-03-18T12:25:00.763Z,54.17
2019-03-18T12:26:08.976Z,54.38
2019-03-18T12:27:17.075Z,53.99
2019-03-18T12:28:26.231Z,53.57
2019-03-18T12:29:34.469Z,53.58
2019-03-18T12:30:43.122Z,53.52
2019-03-18T12:31:51.073Z,53.49
2019-03-18T12:32:58.889Z,53.62
2019-03-18T12:34:13.442Z,53.00
2019-03-18T12:35:24.177Z,52.75
2019-03-18T12:36:32.359Z,52.78
2019-03-18T12:37:40.542Z,52.79
2019-03-18T12:38:48.664Z,52.22
2019-03-18T12:39:56.874Z,52.53
2019-03-18T12:41:05.248Z,52.24
2019-03-18T12:42:13.931Z,52.28
2019-03-18T12:43:21.876Z,52.62
2019-03-18T12:44:30.174Z,52.30
2019-03-18T12:45:38.263Z,52.23
2019-03-18T12:46:46.262Z,52.20
2019-03-18T12:47:54.381Z,51.89
2019-03-18T12:49:02.826Z,52.03
2019-03-18T12:50:17.307Z,52.19
2019-03-18T12:51:25.433Z,52.32
2019-03-18T12:52:33.600Z,51.65
2019-03-18T12:53:41.902Z,52.12
2019-03-18T12:54:49.919Z,51.72
2019-03-18T12:55:57.830Z,51.61
2019-03-18T12:57:06.084Z,51.37
2019-03-18T12:58:14.145Z,51.38
2019-03-18T12:59:22.404Z,51.47
2019-03-18T13:00:39.152Z,51.51
2019-03-18T13:01:47.379Z,50.87
2019-03-18T13:02:55.598Z,51.18
2019-03-18T13:04:04.329Z,51.00
2019-03-18T13:05:12.798Z,50.29
2019-03-18T13:06:20.840Z,50.44
2019-03-18T13:07:28.789Z,50.39
2019-03-18T13:08:36.710Z,50.31
2019-03-18T13:09:44.833Z,50.06
2019-03-18T13:10:53.336Z,50.44
2019-03-18T13:12:01.323Z,49.67
2019-03-18T13:13:09.371Z,49.16
2019-03-18T13:14:17.291Z,49.24
2019-03-18T13:15:25.619Z,48.66
2019-03-18T13:16:33.906Z,48.23
2019-03-18T13:17:43.853Z,47.51
2019-03-18T13:18:51.792Z,47.18
2019-03-18T13:20:00.008Z,47.50
2019-03-18T13:21:08.565Z,46.19
2019-03-18T13:22:16.551Z,46.15
2019-03-18T13:23:24.873Z,46.27
2019-03-18T13:24:32.933Z,46.04
2019-03-18T13:25:42.092Z,45.46
2019-03-18T13:26:50.348Z,45.89
2019-03-18T13:27:58.450Z,45.16
2019-03-18T13:29:06.781Z,45.16
2019-03-18T13:30:17.860Z,45.53
2019-03-18T13:31:25.881Z,45.63
2019-03-18T13:32:33.937Z,45.65
2019-03-18T13:33:42.241Z,45.59
2019-03-18T13:34:50.415Z,45.40
2019-03-18T13:35:58.402Z,45.38
2019-03-18T13:37:06.841Z,44.76
2019-03-18T13:38:14.803Z,44.85
2019-03-18T13:39:23.361Z,44.64
2019-03-18T13:40:31.352Z,45.04
2019-03-18T13:41:39.676Z,44.30
2019-03-18T13:42:48.073Z,43.93
2019-03-18T13:43:56.083Z,43.83
2019-03-18T13:45:05.111Z,43.82
2019-03-18T13:46:13.299Z,43.98
2019-03-18T13:47:21.338Z,43.57
2019-03-18T13:48:29.545Z,43.48
2019-03-18T13:49:37.793Z,43.66
2019-03-18T13:50:45.844Z,43.77
2019-03-18T13:51:54.052Z,43.86
2019-03-18T13:53:02.355Z,44.00
2019-03-18T13:54:10.407Z,43.72
2019-03-18T13:55:18.609Z,43.73
2019-03-18T13:56:26.703Z,43.85
2019-03-18T13:57:35.090Z,44.09
2019-03-18T13:58:43.190Z,43.88
2019-03-18T13:59:51.332Z,44.00
2019-03-18T14:00:59.799Z,44.15
2019-03-18T14:02:08.286Z,44.32
2019-03-18T14:03:16.771Z,44.44
2019-03-18T14:04:25.028Z,44.30
2019-03-18T14:05:33.159Z,44.42
2019-03-18T14:06:41.340Z,44.27
2019-03-18T14:07:59.481Z,43.58
2019-03-18T14:08:59.161Z,43.66
2019-03-18T14:10:20.066Z,43.17
2019-03-18T14:11:28.621Z,43.21
2019-03-18T14:12:37.260Z,43.04
2019-03-18T14:13:46.776Z,42.95
2019-03-18T14:14:54.984Z,42.73
2019-03-18T14:16:03.221Z,42.65
2019-03-18T14:17:11.336Z,42.75
2019-03-18T14:18:19.416Z,43.10
2019-03-18T14:19:27.678Z,43.03
2019-03-18T14:20:35.859Z,43.18
2019-03-18T14:21:43.843Z,42.67
2019-03-18T14:22:52.147Z,42.91
2019-03-18T14:24:00.496Z,42.82
2019-03-18T14:25:10.862Z,43.24
2019-03-18T14:26:19.285Z,43.10
2019-03-18T14:27:27.531Z,43.01
2019-03-18T14:28:35.842Z,43.04
2019-03-18T14:29:44.249Z,43.11
2019-03-18T14:30:52.514Z,43.38
2019-03-18T14:32:01.001Z,43.29
2019-03-18T14:33:08.923Z,43.24
2019-03-18T14:34:17.144Z,42.55
2019-03-18T14:35:25.555Z,42.70
2019-03-18T14:36:33.662Z,42.47
2019-03-18T14:37:42.049Z,42.39
2019-03-18T14:38:50.332Z,42.13
2019-03-18T14:39:58.237Z,41.99
2019-03-18T14:41:06.847Z,41.95